Time;durP1;ratioP1;P1;durP2;ratioP2;P2;SDS_P1;SDS_P2;PMS_P1;PMS_P2;Temp;Humidity;BMP_temperature;BMP_pressure;BME280_temperature;BME280_humidity;BME280_pressure;Samples;Min_cycle;Max_cycle;Signal;HPM_P1;HPM_P2
2022/09/04 00:00:09;;;;;;;10.75;3.25;;;;;;;;;;5139867;27;20139;-73
2022/09/04 00:02:38;;;;;;;9.27;3.00;;;;;;;;;;5146097;27;20076;-74
2022/09/04 00:05:16;;;;;;;10.98;3.28;;;;;;;;;;5128992;27;20052;-76
2022/09/04 00:07:43;;;;;;;10.73;3.30;;;;;;;;;;5131278;27;20044;-75
2022/09/04 00:10:10;;;;;;;10.00;3.00;;;;;;;;;;5131873;27;20047;-76
2022/09/04 00:12:45;;;;;;;8.48;3.05;;;;;;;;;;5124729;27;20127;-70
2022/09/04 00:15:13;;;;;;;11.90;3.10;;;;;;;;;;5140168;27;20042;-79
2022/09/04 00:17:45;;;;;;;10.13;3.05;;;;;;;;;;5133839;27;20075;-77
2022/09/04 00:20:31;;;;;;;7.40;2.92;;;;;;;;;;5132526;27;20051;-71
2022/09/04 00:23:08;;;;;;;8.98;2.92;;;;;;;;;;5148389;27;20139;-74
2022/09/04 00:25:57;;;;;;;13.57;3.22;;;;;;;;;;5144214;27;20062;-74
2022/09/04 00:28:32;;;;;;;11.10;3.00;;;;;;;;;;5114633;27;20051;-70
2022/09/04 00:31:25;;;;;;;9.98;3.00;;;;;;;;;;5121239;27;20478;-78
2022/09/04 00:34:14;;;;;;;12.02;3.08;;;;;;;;;;5118081;27;20118;-76
2022/09/04 00:36:42;;;;;;;8.48;2.78;;;;;;;;;;5116784;27;20552;-70
2022/09/04 00:39:11;;;;;;;10.98;3.10;;;;;;;;;;5141103;27;20057;-74
2022/09/04 00:41:41;;;;;;;9.20;3.25;;;;;;;;;;5133397;27;20137;-75
2022/09/04 00:44:16;;;;;;;12.50;3.20;;;;;;;;;;5116623;27;20495;-75
2022/09/04 00:46:52;;;;;;;11.10;2.92;;;;;;;;;;5136207;27;20043;-75
2022/09/04 00:49:56;;;;;;;10.15;3.28;;;;;;;;;;5143361;27;20068;-80
2022/09/04 00:52:32;;;;;;;12.68;3.50;;;;;;;;;;5031369;28;20067;-77
2022/09/04 00:55:07;;;;;;;9.17;3.27;;;;;;;;;;5123778;27;20047;-70
2022/09/04 00:57:52;;;;;;;13.23;3.38;;;;;;;;;;5146801;27;20122;-74
2022/09/04 01:00:19;;;;;;;13.57;3.80;;;;;;;;;;5144506;27;20110;-76
2022/09/04 01:03:04;;;;;;;9.60;3.30;;;;;;;;;;5128499;27;20110;-84
2022/09/04 01:05:31;;;;;;;11.45;3.55;;;;;;;;;;5145162;27;20188;-75
2022/09/04 01:08:06;;;;;;;10.32;3.40;;;;;;;;;;5115306;27;20087;-76
2022/09/04 01:10:44;;;;;;;10.90;3.30;;;;;;;;;;5140533;27;20484;-73
2022/09/04 01:13:32;;;;;;;13.00;3.20;;;;;;;;;;5148071;27;20103;-73
2022/09/04 01:16:04;;;;;;;11.60;3.45;;;;;;;;;;5148036;27;20091;-76
2022/09/04 01:18:34;;;;;;;8.50;3.25;;;;;;;;;;5145225;27;20055;-75
2022/09/04 01:21:10;;;;;;;13.85;3.50;;;;;;;;;;5139435;27;20043;-73
2022/09/04 01:23:44;;;;;;;11.43;3.30;;;;;;;;;;5144428;27;20043;-72
2022/09/04 01:26:24;;;;;;;11.50;3.17;;;;;;;;;;5137832;27;20049;-74
2022/09/04 01:29:09;;;;;;;14.65;3.75;;;;;;;;;;5146186;27;20535;-73
2022/09/04 01:31:40;;;;;;;11.45;3.58;;;;;;;;;;5147235;27;20049;-75
2022/09/04 01:34:26;;;;;;;10.82;3.60;;;;;;;;;;5144579;27;20071;-76
2022/09/04 01:36:56;;;;;;;9.80;3.28;;;;;;;;;;5138225;27;20111;-76
2022/09/04 01:39:23;;;;;;;11.52;3.60;;;;;;;;;;5145978;27;20042;-74
2022/09/04 01:41:52;;;;;;;12.15;3.40;;;;;;;;;;5147765;27;20134;-76
2022/09/04 01:44:18;;;;;;;11.55;3.50;;;;;;;;;;5131963;27;20051;-76
2022/09/04 01:46:44;;;;;;;9.55;3.30;;;;;;;;;;5152612;27;20242;-76
2022/09/04 01:49:22;;;;;;;13.23;3.60;;;;;;;;;;5151009;27;20062;-74
2022/09/04 01:52:03;;;;;;;12.85;3.42;;;;;;;;;;5146803;27;20061;-74
2022/09/04 01:54:34;;;;;;;9.48;3.78;;;;;;;;;;5132485;27;20042;-70
2022/09/04 01:57:14;;;;;;;10.60;3.80;;;;;;;;;;5128095;27;20126;-82
2022/09/04 01:59:48;;;;;;;11.23;3.70;;;;;;;;;;5145468;27;20062;-76
2022/09/04 02:02:20;;;;;;;9.52;3.35;;;;;;;;;;5148122;27;20186;-76
2022/09/04 02:04:46;;;;;;;11.68;3.35;;;;;;;;;;5125244;27;20039;-77
2022/09/04 02:07:12;;;;;;;;;;;;;;;;;;5130343;27;20070;-70
2022/09/04 02:09:38;;;;;;;10.85;3.40;;;;;;;;;;5151247;27;20026;-75
2022/09/04 02:12:15;;;;;;;9.30;3.67;;;;;;;;;;5149943;27;20060;-75
2022/09/04 02:14:53;;;;;;;10.30;3.30;;;;;;;;;;5131440;27;20424;-75
2022/09/04 02:17:25;;;;;;;10.18;3.28;;;;;;;;;;5127347;27;20416;-74
2022/09/04 02:20:06;;;;;;;12.70;3.88;;;;;;;;;;5133589;27;20145;-83
2022/09/04 02:22:32;;;;;;;8.75;3.65;;;;;;;;;;5149241;27;20122;-70
2022/09/04 02:25:21;;;;;;;9.95;2.92;;;;;;;;;;5146040;27;20133;-70
2022/09/04 02:27:53;;;;;;;8.93;3.25;;;;;;;;;;5148849;27;20051;-72
2022/09/04 02:30:20;;;;;;;9.70;3.20;;;;;;;;;;5137139;27;20088;-71
2022/09/04 02:32:53;;;;;;;10.77;3.28;;;;;;;;;;5150516;27;20058;-72
2022/09/04 02:35:19;;;;;;;9.00;3.00;;;;;;;;;;5150095;27;20133;-71
2022/09/04 02:37:50;;;;;;;10.70;3.50;;;;;;;;;;5150304;27;20102;-71
2022/09/04 02:40:39;;;;;;;11.35;3.75;;;;;;;;;;5151087;27;20205;-73
2022/09/04 02:43:24;;;;;;;11.75;3.45;;;;;;;;;;5148616;27;20039;-78
2022/09/04 02:46:02;;;;;;;10.63;3.50;;;;;;;;;;5149922;27;20568;-71
2022/09/04 02:48:51;;;;;;;10.02;3.60;;;;;;;;;;5151708;27;20336;-71
2022/09/04 02:51:23;;;;;;;12.35;3.80;;;;;;;;;;5132899;27;20047;-74
2022/09/04 02:53:54;;;;;;;10.65;3.60;;;;;;;;;;5152495;27;20126;-73
2022/09/04 02:56:20;;;;;;;8.88;3.85;;;;;;;;;;5148509;27;20583;-71
2022/09/04 02:58:52;;;;;;;10.43;3.40;;;;;;;;;;5150329;27;20053;-71
2022/09/04 03:01:21;;;;;;;10.93;3.85;;;;;;;;;;5140260;27;20058;-72
2022/09/04 03:04:01;;;;;;;10.52;3.60;;;;;;;;;;5148391;27;20114;-72
2022/09/04 03:06:47;;;;;;;12.82;3.38;;;;;;;;;;5114294;27;20598;-71
2022/09/04 03:09:20;;;;;;;10.63;3.28;;;;;;;;;;5150584;27;20446;-71
2022/09/04 03:11:59;;;;;;;11.93;4.22;;;;;;;;;;5150246;27;20046;-72
2022/09/04 03:14:33;;;;;;;9.27;3.28;;;;;;;;;;5132213;27;20153;-71
2022/09/04 03:17:02;;;;;;;9.68;3.40;;;;;;;;;;5139668;27;20175;-73
2022/09/04 03:19:35;;;;;;;8.95;3.60;;;;;;;;;;5132406;27;20053;-72
2022/09/04 03:22:20;;;;;;;9.88;3.45;;;;;;;;;;5130861;27;20130;-71
2022/09/04 03:25:06;;;;;;;9.50;3.42;;;;;;;;;;5112090;27;20104;-71
2022/09/04 03:27:32;;;;;;;12.15;4.15;;;;;;;;;;5114094;27;20064;-72
2022/09/04 03:30:02;;;;;;;9.95;3.70;;;;;;;;;;5109315;28;20124;-72
2022/09/04 03:32:47;;;;;;;12.65;3.85;;;;;;;;;;5107802;27;20455;-71
2022/09/04 03:35:19;;;;;;;10.13;3.45;;;;;;;;;;5089546;28;20048;-71
2022/09/04 03:37:51;;;;;;;11.02;3.72;;;;;;;;;;5096824;27;20108;-72
2022/09/04 03:40:21;;;;;;;12.65;3.67;;;;;;;;;;5087771;28;20050;-72
2022/09/04 03:43:06;;;;;;;15.00;3.85;;;;;;;;;;5092447;27;20050;-72
2022/09/04 03:45:35;;;;;;;16.00;3.90;;;;;;;;;;5087788;28;20067;-72
2022/09/04 03:48:11;;;;;;;11.00;3.85;;;;;;;;;;5094081;27;20036;-71
2022/09/04 03:50:44;;;;;;;10.85;3.80;;;;;;;;;;5089265;27;20048;-75
2022/09/04 03:53:26;;;;;;;12.27;3.55;;;;;;;;;;5113788;27;20044;-70
2022/09/04 03:56:11;;;;;;;11.52;3.72;;;;;;;;;;5125107;27;20503;-70
2022/09/04 03:58:43;;;;;;;10.50;3.58;;;;;;;;;;5109015;27;20458;-70
2022/09/04 04:01:21;;;;;;;12.10;3.75;;;;;;;;;;5109791;28;20133;-69
2022/09/04 04:03:51;;;;;;;10.25;3.67;;;;;;;;;;5110211;27;20039;-74
2022/09/04 04:06:17;;;;;;;10.10;3.75;;;;;;;;;;5118368;27;20043;-73
2022/09/04 04:09:03;;;;;;;9.32;3.65;;;;;;;;;;5116442;27;20039;-70
2022/09/04 04:11:44;;;;;;;13.55;3.78;;;;;;;;;;5088182;28;20091;-71
2022/09/04 04:14:10;;;;;;;13.02;4.07;;;;;;;;;;5097617;27;20118;-70
2022/09/04 04:16:42;;;;;;;10.68;3.55;;;;;;;;;;5106351;28;20078;-74
2022/09/04 04:19:23;;;;;;;10.25;3.88;;;;;;;;;;5104966;27;20127;-71
2022/09/04 04:21:54;;;;;;;12.68;3.90;;;;;;;;;;5116478;27;20112;-73
2022/09/04 04:24:20;;;;;;;10.48;3.78;;;;;;;;;;5111500;27;20070;-70
2022/09/04 04:27:07;;;;;;;10.30;3.72;;;;;;;;;;5125070;27;20058;-70
2022/09/04 04:29:48;;;;;;;19.00;5.53;;;;;;;;;;5112653;27;20043;-77
2022/09/04 04:32:17;;;;;;;13.40;3.88;;;;;;;;;;5122307;27;20051;-72
2022/09/04 04:34:52;;;;;;;9.80;3.78;;;;;;;;;;5127036;27;20122;-76
2022/09/04 04:37:30;;;;;;;10.18;4.05;;;;;;;;;;5125899;27;20062;-76
2022/09/04 04:40:09;;;;;;;8.88;3.92;;;;;;;;;;5124000;27;20058;-71
2022/09/04 04:42:42;;;;;;;10.80;3.92;;;;;;;;;;5123434;27;20184;-72
2022/09/04 04:48:16;;;;;;;11.05;4.07;;;;;;;;;;5109075;28;20118;-70
2022/09/04 04:50:48;;;;;;;10.68;3.75;;;;;;;;;;5124741;27;20462;-70
2022/09/04 04:53:14;;;;;;;11.35;4.55;;;;;;;;;;5108047;28;20047;-70
2022/09/04 04:55:52;;;;;;;12.07;4.00;;;;;;;;;;5113663;28;20095;-72
2022/09/04 04:58:37;;;;;;;10.30;3.83;;;;;;;;;;5119829;28;20458;-75
2022/09/04 05:01:10;;;;;;;10.77;4.10;;;;;;;;;;5125760;27;20074;-75
2022/09/04 05:04:03;;;;;;;12.50;3.83;;;;;;;;;;5128069;27;20444;-74
2022/09/04 05:06:48;;;;;;;10.95;4.05;;;;;;;;;;5126297;27;20098;-78
2022/09/04 05:09:14;;;;;;;12.40;3.90;;;;;;;;;;5128551;27;20446;-72
2022/09/04 05:11:40;;;;;;;8.82;3.60;;;;;;;;;;5127899;27;20141;-71
2022/09/04 05:14:07;;;;;;;9.32;3.60;;;;;;;;;;5117788;27;20402;-71
2022/09/04 05:16:42;;;;;;;15.80;4.30;;;;;;;;;;5127396;27;20074;-71
2022/09/04 05:19:14;;;;;;;10.65;3.83;;;;;;;;;;5118246;27;20058;-71
2022/09/04 05:22:02;;;;;;;12.18;4.30;;;;;;;;;;5128590;27;20428;-71
2022/09/04 05:24:29;;;;;;;8.50;3.90;;;;;;;;;;5131867;27;20481;-75
2022/09/04 05:27:10;;;;;;;11.20;4.20;;;;;;;;;;5151958;27;20116;-72
2022/09/04 05:29:50;;;;;;;11.07;4.13;;;;;;;;;;5140071;27;20103;-76
2022/09/04 05:32:39;;;;;;;11.82;4.30;;;;;;;;;;5118829;27;20133;-71
2022/09/04 05:35:11;;;;;;;10.38;4.13;;;;;;;;;;5129510;27;20054;-72
2022/09/04 05:37:58;;;;;;;13.63;4.25;;;;;;;;;;5104600;27;20039;-75
2022/09/04 05:40:38;;;;;;;9.77;4.13;;;;;;;;;;5110798;27;20174;-74
2022/09/04 05:43:04;;;;;;;11.05;4.15;;;;;;;;;;5111304;27;20144;-74
2022/09/04 05:45:49;;;;;;;9.45;3.90;;;;;;;;;;5133668;27;20516;-76
2022/09/04 05:48:15;;;;;;;17.88;4.38;;;;;;;;;;5148936;27;20152;-73
2022/09/04 05:50:49;;;;;;;13.05;4.43;;;;;;;;;;5134575;27;20047;-74
2022/09/04 05:53:31;;;;;;;12.25;4.57;;;;;;;;;;5145434;27;20042;-75
2022/09/04 05:56:02;;;;;;;10.27;4.20;;;;;;;;;;5141115;27;20043;-74
2022/09/04 05:58:50;;;;;;;14.23;4.70;;;;;;;;;;5144354;27;20382;-74
2022/09/04 06:01:24;;;;;;;12.48;4.65;;;;;;;;;;5132242;27;20058;-76
2022/09/04 06:03:59;;;;;;;9.45;4.43;;;;;;;;;;5130918;27;20193;-74
2022/09/04 06:06:44;;;;;;;10.93;4.35;;;;;;;;;;5138707;27;20031;-73
2022/09/04 06:09:19;;;;;;;11.27;4.53;;;;;;;;;;5132739;27;20040;-77
2022/09/04 06:11:50;;;;;;;10.88;4.40;;;;;;;;;;5102718;27;20347;-75
2022/09/04 06:14:22;;;;;;;12.40;4.68;;;;;;;;;;5144598;27;20643;-75
2022/09/04 06:16:53;;;;;;;11.15;4.50;;;;;;;;;;5139900;27;20055;-77
2022/09/04 06:19:43;;;;;;;10.25;4.47;;;;;;;;;;5119250;27;20138;-75
2022/09/04 06:22:24;;;;;;;13.50;4.30;;;;;;;;;;5126432;27;20358;-76
2022/09/04 06:25:09;;;;;;;14.95;4.55;;;;;;;;;;5134376;27;20054;-78
2022/09/04 06:27:44;;;;;;;11.10;4.40;;;;;;;;;;5129450;27;20160;-72
2022/09/04 06:30:11;;;;;;;14.45;4.88;;;;;;;;;;5142051;27;20049;-73
2022/09/04 06:32:40;;;;;;;10.68;4.60;;;;;;;;;;5132776;27;20039;-73
2022/09/04 06:35:25;;;;;;;12.55;5.13;;;;;;;;;;5139009;27;20544;-71
2022/09/04 06:38:10;;;;;;;12.10;4.60;;;;;;;;;;5139450;27;20042;-71
2022/09/04 06:40:54;;;;;;;12.35;5.22;;;;;;;;;;5142822;27;20469;-79
2022/09/04 06:43:29;;;;;;;12.38;5.10;;;;;;;;;;5150198;27;20110;-72
2022/09/04 06:46:11;;;;;;;12.80;4.55;;;;;;;;;;5151721;27;20106;-72
2022/09/04 06:49:00;;;;;;;11.32;4.53;;;;;;;;;;5151412;27;20053;-73
2022/09/04 06:51:52;;;;;;;17.30;4.80;;;;;;;;;;5137967;27;20051;-74
2022/09/04 06:54:24;;;;;;;13.35;4.88;;;;;;;;;;5151490;27;20398;-72
2022/09/04 06:56:50;;;;;;;9.15;4.50;;;;;;;;;;5150778;27;20054;-73
2022/09/04 06:59:31;;;;;;;10.85;4.50;;;;;;;;;;5151366;27;20168;-81
2022/09/04 07:02:16;;;;;;;10.75;4.75;;;;;;;;;;5150876;27;20352;-73
2022/09/04 07:05:02;;;;;;;12.10;5.03;;;;;;;;;;5150455;27;20039;-73
2022/09/04 07:07:47;;;;;;;14.75;4.80;;;;;;;;;;5151555;27;20491;-73
2022/09/04 07:10:15;;;;;;;11.77;3.95;;;;;;;;;;5150959;27;20080;-75
2022/09/04 07:13:01;;;;;;;11.20;4.40;;;;;;;;;;5132027;27;20446;-72
2022/09/04 07:15:40;;;;;;;10.00;4.43;;;;;;;;;;5151282;27;20133;-73
2022/09/04 07:18:18;;;;;;;12.82;5.38;;;;;;;;;;5150961;27;20042;-73
2022/09/04 07:21:11;;;;;;;13.30;5.07;;;;;;;;;;5150716;27;20086;-72
2022/09/04 07:23:45;;;;;;;9.65;4.57;;;;;;;;;;5150568;27;20058;-72
2022/09/04 07:26:27;;;;;;;9.65;4.60;;;;;;;;;;5150247;27;20082;-71
2022/09/04 07:28:56;;;;;;;12.02;4.90;;;;;;;;;;5150796;27;20483;-74
2022/09/04 07:31:22;;;;;;;14.65;4.88;;;;;;;;;;5151043;27;20174;-72
2022/09/04 07:33:57;;;;;;;12.93;5.18;;;;;;;;;;5150586;27;20065;-74
2022/09/04 07:36:31;;;;;;;10.50;4.43;;;;;;;;;;5150744;27;20043;-74
2022/09/04 07:39:16;;;;;;;10.07;4.72;;;;;;;;;;5132011;27;20396;-80
2022/09/04 07:41:53;;;;;;;11.63;4.65;;;;;;;;;;5150031;27;20043;-74
2022/09/04 07:44:27;;;;;;;10.75;5.15;;;;;;;;;;5150601;27;20145;-73
2022/09/04 07:46:59;;;;;;;12.20;4.80;;;;;;;;;;5149900;27;20058;-83
2022/09/04 07:49:34;;;;;;;15.13;5.32;;;;;;;;;;5131809;27;20066;-85
2022/09/04 07:52:17;;;;;;;10.30;4.82;;;;;;;;;;5149549;27;20055;-75
2022/09/04 07:54:43;;;;;;;10.45;4.55;;;;;;;;;;5149456;27;20427;-75
2022/09/04 07:57:30;;;;;;;11.15;4.47;;;;;;;;;;5150017;27;20123;-76
2022/09/04 08:00:09;;;;;;;11.93;4.60;;;;;;;;;;5097435;27;20547;-73
2022/09/04 08:02:45;;;;;;;13.63;5.20;;;;;;;;;;5131146;27;20054;-75
2022/09/04 08:05:11;;;;;;;11.80;4.72;;;;;;;;;;5149879;27;20046;-75
2022/09/04 08:07:40;;;;;;;14.10;4.65;;;;;;;;;;5149457;27;20137;-76
2022/09/04 08:10:24;;;;;;;10.93;4.80;;;;;;;;;;5130291;27;20432;-72
2022/09/04 08:13:08;;;;;;;11.90;5.10;;;;;;;;;;5149352;27;20043;-73
2022/09/04 08:15:53;;;;;;;12.77;4.97;;;;;;;;;;5149720;27;20043;-74
2022/09/04 08:18:36;;;;;;;13.90;4.75;;;;;;;;;;5149878;27;20182;-74
2022/09/04 08:21:23;;;;;;;13.02;4.70;;;;;;;;;;5148995;27;20038;-76
2022/09/04 08:24:05;;;;;;;11.30;4.57;;;;;;;;;;5112905;27;20086;-74
2022/09/04 08:27:00;;;;;;;11.98;4.28;;;;;;;;;;5149625;27;20046;-71
2022/09/04 08:29:32;;;;;;;10.00;4.22;;;;;;;;;;5149180;27;20130;-72
2022/09/04 08:32:18;;;;;;;12.35;4.20;;;;;;;;;;5148750;27;20128;-79
2022/09/04 08:34:56;;;;;;;11.38;4.57;;;;;;;;;;5148432;27;20122;-78
2022/09/04 08:37:38;;;;;;;11.38;4.47;;;;;;;;;;5148525;27;20470;-80
2022/09/04 08:40:24;;;;;;;12.55;4.75;;;;;;;;;;5148888;27;20042;-73
2022/09/04 08:43:08;;;;;;;10.15;4.10;;;;;;;;;;5148656;27;20159;-71
2022/09/04 08:45:51;;;;;;;12.93;4.40;;;;;;;;;;5149352;27;20514;-76
2022/09/04 08:48:36;;;;;;;10.23;3.90;;;;;;;;;;5149436;27;20119;-71
2022/09/04 08:51:21;;;;;;;10.13;4.10;;;;;;;;;;5149209;27;20394;-81
2022/09/04 08:53:50;;;;;;;10.57;4.10;;;;;;;;;;5149560;27;20054;-72
2022/09/04 08:56:17;;;;;;;9.88;4.15;;;;;;;;;;5149513;27;20111;-72
2022/09/04 08:58:49;;;;;;;11.40;4.32;;;;;;;;;;5131065;27;20102;-74
2022/09/04 09:01:15;;;;;;;12.52;4.00;;;;;;;;;;5131004;27;20486;-76
2022/09/04 09:04:07;;;;;;;11.90;3.80;;;;;;;;;;5149569;27;20035;-75
2022/09/04 09:06:49;;;;;;;11.75;4.10;;;;;;;;;;5130660;27;20038;-71
2022/09/04 09:09:15;;;;;;;12.27;3.97;;;;;;;;;;5113396;27;20149;-71
2022/09/04 09:12:01;;;;;;;12.35;4.00;;;;;;;;;;5130737;27;20059;-83
2022/09/04 09:14:40;;;;;;;8.13;3.60;;;;;;;;;;5149272;27;20055;-72
2022/09/04 09:17:33;;;;;;;10.65;4.30;;;;;;;;;;5149101;27;20364;-72
2022/09/04 09:20:12;;;;;;;10.80;4.32;;;;;;;;;;5149243;27;20038;-72
2022/09/04 09:22:58;;;;;;;10.20;3.80;;;;;;;;;;5149356;27;20054;-73
2022/09/04 09:25:26;;;;;;;8.75;3.55;;;;;;;;;;5149344;27;20058;-73
2022/09/04 09:28:08;;;;;;;10.25;3.72;;;;;;;;;;5149379;27;20105;-70
2022/09/04 09:30:43;;;;;;;11.82;4.00;;;;;;;;;;5148538;27;20186;-72
2022/09/04 09:33:25;;;;;;;10.73;3.30;;;;;;;;;;5130078;27;20051;-75
2022/09/04 09:36:01;;;;;;;11.02;3.85;;;;;;;;;;5130798;27;20481;-74
2022/09/04 09:38:33;;;;;;;10.43;3.67;;;;;;;;;;5149187;27;20055;-76
2022/09/04 09:40:59;;;;;;;10.48;3.67;;;;;;;;;;5148368;27;20066;-76
2022/09/04 09:43:28;;;;;;;8.68;3.30;;;;;;;;;;5148895;27;20115;-75
2022/09/04 09:45:54;;;;;;;8.50;3.55;;;;;;;;;;5148346;27;20470;-73
2022/09/04 09:48:20;;;;;;;;;;;;;;;;;;5130853;27;20122;-73
2022/09/04 09:50:46;;;;;;;11.10;3.60;;;;;;;;;;5133969;27;20358;-72
2022/09/04 09:53:12;;;;;;;8.90;3.17;;;;;;;;;;5152330;27;20095;-74
2022/09/04 09:55:38;;;;;;;;;;;;;;;;;;5153226;27;20061;-72
2022/09/04 09:58:19;;;;;;;9.30;3.45;;;;;;;;;;5152639;27;19919;-80
2022/09/04 10:00:55;;;;;;;8.10;3.33;;;;;;;;;;5153129;27;20202;-70
2022/09/04 10:03:40;;;;;;;10.20;3.30;;;;;;;;;;5133579;27;20126;-74
2022/09/04 10:06:06;;;;;;;8.38;3.13;;;;;;;;;;5152429;27;20175;-76
2022/09/04 10:08:33;;;;;;;;;;;;;;;;;;5153123;27;20039;-72
2022/09/04 10:10:59;;;;;;;;;;;;;;;;;;5152361;27;20030;-73
2022/09/04 10:13:32;;;;;;;9.30;2.97;;;;;;;;;;5152666;27;19962;-70
2022/09/04 10:16:18;;;;;;;11.23;3.70;;;;;;;;;;5152575;27;20077;-73
2022/09/04 10:18:44;;;;;;;11.27;3.33;;;;;;;;;;5132825;27;20134;-67
2022/09/04 10:21:11;;;;;;;;;;;;;;;;;;5152740;27;20047;-72
2022/09/04 10:23:57;;;;;;;10.85;2.88;;;;;;;;;;5152087;27;19923;-74
2022/09/04 10:26:24;;;;;;;9.48;3.08;;;;;;;;;;5152158;27;20054;-82
2022/09/04 10:29:10;;;;;;;7.95;2.75;;;;;;;;;;5133461;27;20103;-73
2022/09/04 10:31:45;;;;;;;9.57;3.10;;;;;;;;;;5152411;27;20062;-69
2022/09/04 10:34:11;;;;;;;10.57;3.33;;;;;;;;;;5151919;27;20053;-73
2022/09/04 10:36:37;;;;;;;;;;;;;;;;;;5152609;27;20049;-70
2022/09/04 10:42:34;;;;;;;11.05;3.42;;;;;;;;;;5151639;27;20046;-70
2022/09/04 10:45:09;;;;;;;10.05;3.20;;;;;;;;;;5151646;27;20054;-71
2022/09/04 10:47:43;;;;;;;12.00;3.42;;;;;;;;;;5133159;27;20159;-74
2022/09/04 10:50:12;;;;;;;8.95;3.10;;;;;;;;;;5151403;27;20103;-74
2022/09/04 10:52:49;;;;;;;8.00;2.95;;;;;;;;;;5151969;27;20370;-73
2022/09/04 10:55:35;;;;;;;11.43;3.30;;;;;;;;;;5151092;27;20438;-73
2022/09/04 10:58:09;;;;;;;8.13;3.00;;;;;;;;;;5151679;27;20043;-72
2022/09/04 11:00:48;;;;;;;10.30;3.10;;;;;;;;;;5131794;27;20098;-72
2022/09/04 11:03:17;;;;;;;6.90;2.97;;;;;;;;;;5151099;27;20043;-70
2022/09/04 11:05:50;;;;;;;8.68;3.00;;;;;;;;;;5151244;27;20047;-74
2022/09/04 11:08:35;;;;;;;11.05;2.95;;;;;;;;;;5115099;27;20046;-79
2022/09/04 11:11:19;;;;;;;10.02;3.25;;;;;;;;;;5132973;27;20434;-74
2022/09/04 11:13:48;;;;;;;10.18;3.40;;;;;;;;;;5151393;27;20051;-83
2022/09/04 11:16:33;;;;;;;10.52;3.58;;;;;;;;;;5132172;27;20123;-70
2022/09/04 11:19:14;;;;;;;10.25;3.20;;;;;;;;;;5151269;27;20046;-81
2022/09/04 11:21:55;;;;;;;9.88;3.17;;;;;;;;;;5151098;27;20043;-73
2022/09/04 11:24:40;;;;;;;10.88;3.47;;;;;;;;;;5150340;27;20191;-73
2022/09/04 11:27:29;;;;;;;10.77;3.13;;;;;;;;;;5132118;27;20465;-72
2022/09/04 11:29:58;;;;;;;10.38;3.30;;;;;;;;;;5131157;27;20110;-73
2022/09/04 11:32:34;;;;;;;11.48;3.20;;;;;;;;;;5150298;27;20110;-74
2022/09/04 11:34:59;;;;;;;10.45;3.50;;;;;;;;;;5150874;27;20083;-75
2022/09/04 11:37:25;;;;;;;;;;;;;;;;;;5131805;27;20130;-72
2022/09/04 11:40:02;;;;;;;8.18;3.30;;;;;;;;;;5150699;27;19925;-72
2022/09/04 11:42:31;;;;;;;11.00;3.47;;;;;;;;;;5150518;27;20085;-74
2022/09/04 11:44:59;;;;;;;8.43;3.30;;;;;;;;;;5131802;27;20082;-74
2022/09/04 11:47:45;;;;;;;8.75;2.95;;;;;;;;;;5150186;27;20046;-70
2022/09/04 11:50:30;;;;;;;8.45;3.05;;;;;;;;;;5131280;27;20439;-75
2022/09/04 11:53:11;;;;;;;9.05;3.17;;;;;;;;;;5150503;27;20061;-71
2022/09/04 11:55:49;;;;;;;11.10;3.28;;;;;;;;;;5131642;27;20388;-78
2022/09/04 11:58:35;;;;;;;8.68;3.13;;;;;;;;;;5131360;27;20194;-73
2022/09/04 12:01:08;;;;;;;9.23;3.00;;;;;;;;;;5149374;27;20057;-74
2022/09/04 12:03:40;;;;;;;9.65;3.40;;;;;;;;;;5149769;27;20080;-73
2022/09/04 12:06:09;;;;;;;8.73;3.40;;;;;;;;;;5150496;27;20099;-71
2022/09/04 12:08:55;;;;;;;7.75;3.08;;;;;;;;;;5149813;27;20126;-74
2022/09/04 12:11:31;;;;;;;10.65;3.20;;;;;;;;;;5149881;27;20355;-72
2022/09/04 12:13:57;;;;;;;12.18;3.63;;;;;;;;;;5150113;27;20042;-79
2022/09/04 12:16:25;;;;;;;;;;;;;;;;;;5150222;27;20049;-81
2022/09/04 12:18:58;;;;;;;10.90;3.20;;;;;;;;;;5131320;27;19938;-75
2022/09/04 12:21:43;;;;;;;8.07;3.00;;;;;;;;;;5130710;27;20367;-74
2022/09/04 12:24:27;;;;;;;9.95;3.03;;;;;;;;;;5149606;27;20335;-75
2022/09/04 12:27:12;;;;;;;8.65;3.25;;;;;;;;;;5150190;27;20049;-74
2022/09/04 12:30:04;;;;;;;8.15;2.90;;;;;;;;;;5149377;27;20047;-75
2022/09/04 12:32:48;;;;;;;11.73;3.00;;;;;;;;;;5099652;27;20055;-74
2022/09/04 12:35:44;;;;;;;9.18;3.03;;;;;;;;;;5149673;27;20050;-74
2022/09/04 12:38:20;;;;;;;10.00;2.72;;;;;;;;;;5057999;27;20083;-75
2022/09/04 12:40:50;;;;;;;7.88;2.80;;;;;;;;;;5149751;27;20111;-75
2022/09/04 12:43:28;;;;;;;9.30;2.92;;;;;;;;;;5149457;27;20173;-86
2022/09/04 12:45:54;;;;;;;9.13;3.30;;;;;;;;;;5149787;27;20339;-72
2022/09/04 12:48:20;;;;;;;;;;;;;;;;;;5149657;27;20043;-73
2022/09/04 12:50:46;;;;;;;7.80;3.20;;;;;;;;;;5130875;27;19918;-74
2022/09/04 12:53:12;;;;;;;;;;;;;;;;;;5150131;27;20320;-73
2022/09/04 12:55:45;;;;;;;10.05;3.20;;;;;;;;;;5149755;27;19930;-72
2022/09/04 12:58:12;;;;;;;10.48;2.90;;;;;;;;;;5149644;27;20042;-72
2022/09/04 13:00:54;;;;;;;10.52;3.20;;;;;;;;;;5148960;27;20292;-73
2022/09/04 13:03:20;;;;;;;7.25;3.00;;;;;;;;;;5148460;27;20210;-70
2022/09/04 13:05:46;;;;;;;;;;;;;;;;;;5130759;27;20201;-73
2022/09/04 13:08:21;;;;;;;8.60;2.95;;;;;;;;;;5149532;27;19919;-71
2022/09/04 13:10:47;;;;;;;7.65;3.50;;;;;;;;;;5149430;27;20057;-70
2022/09/04 13:13:32;;;;;;;9.93;3.30;;;;;;;;;;5149676;27;20046;-71
2022/09/04 13:16:21;;;;;;;9.05;3.00;;;;;;;;;;5149034;27;20500;-73
2022/09/04 13:18:59;;;;;;;8.52;3.00;;;;;;;;;;5119776;27;20518;-73
2022/09/04 13:21:25;;;;;;;8.43;2.70;;;;;;;;;;5148786;27;20118;-75
2022/09/04 13:24:06;;;;;;;8.98;2.85;;;;;;;;;;5130885;27;20061;-74
2022/09/04 13:26:41;;;;;;;7.53;2.75;;;;;;;;;;5153249;27;20171;-80
2022/09/04 13:29:15;;;;;;;8.35;3.10;;;;;;;;;;5153693;27;20122;-75
2022/09/04 13:32:00;;;;;;;9.07;3.05;;;;;;;;;;5152987;27;20050;-76
2022/09/04 13:34:34;;;;;;;15.55;3.10;;;;;;;;;;5153008;27;20148;-75
2022/09/04 13:37:44;;;;;;;8.95;3.00;;;;;;;;;;5153079;27;20135;-75
2022/09/04 13:40:25;;;;;;;8.38;2.70;;;;;;;;;;5048463;28;20529;-77
2022/09/04 13:43:03;;;;;;;8.13;3.00;;;;;;;;;;5032068;28;20041;-74
2022/09/04 13:45:32;;;;;;;8.05;2.53;;;;;;;;;;5120486;27;20106;-76
2022/09/04 13:48:06;;;;;;;9.73;2.92;;;;;;;;;;5133861;27;20086;-79
2022/09/04 13:50:37;;;;;;;9.57;3.00;;;;;;;;;;5152520;27;20046;-75
2022/09/04 13:53:38;;;;;;;7.53;2.80;;;;;;;;;;5152600;27;20054;-75
2022/09/04 13:56:08;;;;;;;8.85;2.80;;;;;;;;;;5048797;28;20184;-71
2022/09/04 13:58:50;;;;;;;8.88;3.00;;;;;;;;;;5134302;27;20137;-74
2022/09/04 14:01:22;;;;;;;7.85;2.70;;;;;;;;;;5153234;27;20053;-75
2022/09/04 14:03:52;;;;;;;7.32;2.85;;;;;;;;;;5152146;27;20498;-70
2022/09/04 14:06:20;;;;;;;7.03;2.80;;;;;;;;;;5152557;27;20056;-73
2022/09/04 14:08:47;;;;;;;8.55;2.60;;;;;;;;;;5133053;27;20054;-73
2022/09/04 14:11:25;;;;;;;7.97;3.00;;;;;;;;;;5116448;27;20058;-79
2022/09/04 14:13:51;;;;;;;7.72;2.92;;;;;;;;;;5152005;27;20045;-74
2022/09/04 14:16:18;;;;;;;8.90;3.10;;;;;;;;;;5152194;27;20038;-75
2022/09/04 14:18:50;;;;;;;9.85;3.13;;;;;;;;;;5151650;27;20043;-74
2022/09/04 14:21:23;;;;;;;9.82;3.03;;;;;;;;;;5152239;27;20065;-74
2022/09/04 14:23:56;;;;;;;7.95;2.75;;;;;;;;;;5151616;27;20063;-74
2022/09/04 14:26:27;;;;;;;7.30;3.03;;;;;;;;;;5152064;27;20474;-70
2022/09/04 14:29:03;;;;;;;9.27;2.85;;;;;;;;;;5151419;27;20046;-75
2022/09/04 14:31:29;;;;;;;7.88;3.10;;;;;;;;;;5152045;27;20043;-73
2022/09/04 14:34:19;;;;;;;9.30;3.00;;;;;;;;;;5151354;27;20042;-74
2022/09/04 14:37:18;;;;;;;9.32;2.78;;;;;;;;;;5149889;27;20038;-72
2022/09/04 14:40:24;;;;;;;9.38;2.95;;;;;;;;;;5095179;27;20495;-75
2022/09/04 14:43:10;;;;;;;7.43;2.70;;;;;;;;;;5047258;28;20052;-74
2022/09/04 14:45:49;;;;;;;7.53;3.00;;;;;;;;;;5147223;27;20061;-74
2022/09/04 14:48:22;;;;;;;8.20;2.97;;;;;;;;;;5132891;27;20423;-75
2022/09/04 14:50:58;;;;;;;8.77;3.00;;;;;;;;;;5151369;27;20063;-73
2022/09/04 14:53:33;;;;;;;8.32;2.72;;;;;;;;;;5151565;27;20047;-77
2022/09/04 14:56:05;;;;;;;9.93;2.83;;;;;;;;;;5132895;27;20042;-73
2022/09/04 14:58:34;;;;;;;7.88;2.55;;;;;;;;;;5151303;27;20042;-75
2022/09/04 15:01:05;;;;;;;8.07;2.70;;;;;;;;;;5151409;27;20054;-75
2022/09/04 15:03:39;;;;;;;8.40;3.10;;;;;;;;;;5151796;27;20067;-76
2022/09/04 15:06:14;;;;;;;10.25;2.90;;;;;;;;;;5151507;27;20137;-77
2022/09/04 15:08:43;;;;;;;11.27;2.78;;;;;;;;;;5151349;27;20053;-74
2022/09/04 15:11:12;;;;;;;9.95;2.88;;;;;;;;;;5132745;27;20047;-76
2022/09/04 15:13:46;;;;;;;8.57;2.92;;;;;;;;;;5151070;27;20047;-77
2022/09/04 15:16:27;;;;;;;8.93;3.05;;;;;;;;;;5132524;27;20038;-75
2022/09/04 15:18:55;;;;;;;7.00;2.70;;;;;;;;;;5151038;27;20057;-76
2022/09/04 15:21:25;;;;;;;10.90;3.25;;;;;;;;;;5132158;27;20058;-73
2022/09/04 15:24:00;;;;;;;8.20;2.88;;;;;;;;;;5150304;27;20546;-76
2022/09/04 15:26:50;;;;;;;7.90;2.88;;;;;;;;;;5150849;27;20073;-74
2022/09/04 15:29:16;;;;;;;9.25;3.00;;;;;;;;;;5138001;27;20486;-77
2022/09/04 15:31:43;;;;;;;9.15;3.55;;;;;;;;;;5150351;27;20038;-73
2022/09/04 15:34:20;;;;;;;9.20;2.95;;;;;;;;;;5132230;27;20143;-75
2022/09/04 15:36:46;;;;;;;9.93;3.15;;;;;;;;;;5150410;27;20082;-76